Time;durP1;ratioP1;P1;durP2;ratioP2;P2;SDS_P1;SDS_P2;PMS_P1;PMS_P2;Temp;Humidity;BMP_temperature;BMP_pressure;BME280_temperature;BME280_humidity;BME280_pressure;Samples;Min_cycle;Max_cycle;Signal;HPM_P1;HPM_P2
2023/09/21 00:02:23;;;;;;;4.05;3.15;;;13.00;99.90;;;;;;8237293;28;20027;-78
2023/09/21 00:06:24;;;;;;;10.95;3.67;;;13.00;99.90;;;;;;8256562;28;20031;-79
2023/09/21 00:10:31;;;;;;;5.57;3.20;;;12.90;99.90;;;;;;8254292;28;20115;-79
2023/09/21 00:14:34;;;;;;;6.85;3.47;;;12.60;99.90;;;;;;8257321;28;20406;-79
2023/09/21 00:18:35;;;;;;;5.72;3.38;;;12.60;99.90;;;;;;8249296;28;20035;-79
2023/09/21 00:22:36;;;;;;;9.20;3.25;;;12.50;99.90;;;;;;8230358;28;20023;-79
2023/09/21 00:26:36;;;;;;;4.53;3.10;;;12.40;99.90;;;;;;8252008;28;20038;-77
2023/09/21 00:30:38;;;;;;;8.50;3.28;;;12.40;99.90;;;;;;8249288;28;20026;-79
2023/09/21 00:34:38;;;;;;;5.82;2.92;;;12.30;99.90;;;;;;8240599;28;20039;-79
2023/09/21 00:38:39;;;;;;;5.53;3.20;;;12.20;99.90;;;;;;8242281;28;20034;-79
2023/09/21 00:42:41;;;;;;;6.72;3.38;;;12.20;99.90;;;;;;8248651;28;20039;-79
2023/09/21 00:46:43;;;;;;;5.00;2.88;;;12.20;99.90;;;;;;8251102;28;20023;-79
2023/09/21 00:50:46;;;;;;;5.75;3.47;;;12.10;99.90;;;;;;8232093;28;20034;-79
2023/09/21 00:54:46;;;;;;;4.68;3.65;;;12.30;99.90;;;;;;8242253;28;20026;-78
2023/09/21 00:58:53;;;;;;;6.20;3.55;;;12.30;99.90;;;;;;8233710;28;20022;-78
2023/09/21 01:02:55;;;;;;;5.90;3.22;;;12.30;99.90;;;;;;8253491;28;20022;-79
2023/09/21 01:06:55;;;;;;;5.05;3.15;;;12.20;99.90;;;;;;8251895;28;20036;-79
2023/09/21 01:10:58;;;;;;;3.65;2.58;;;12.00;99.90;;;;;;8244960;28;20093;-79
2023/09/21 01:15:09;;;;;;;7.20;3.30;;;12.00;99.90;;;;;;8242652;28;20054;-79
2023/09/21 01:19:10;;;;;;;6.68;3.70;;;11.80;99.90;;;;;;8236877;28;20504;-79
2023/09/21 01:23:18;;;;;;;4.80;4.18;;;11.70;99.90;;;;;;8242101;28;20027;-79
2023/09/21 01:27:20;;;;;;;5.18;3.85;;;11.60;99.90;;;;;;8253042;28;20106;-78
2023/09/21 01:31:21;;;;;;;7.43;3.75;;;11.70;99.90;;;;;;8240976;28;20747;-79
2023/09/21 01:35:23;;;;;;;5.10;4.10;;;11.60;99.90;;;;;;8241902;28;20026;-78
2023/09/21 01:39:23;;;;;;;7.25;3.38;;;11.60;99.90;;;;;;8234822;28;20037;-79
2023/09/21 01:43:24;;;;;;;5.03;4.15;;;11.60;99.90;;;;;;8254972;28;20031;-78
2023/09/21 01:47:25;;;;;;;5.13;4.55;;;11.70;99.90;;;;;;8236013;28;20030;-78
2023/09/21 01:51:25;;;;;;;9.95;4.65;;;11.70;99.90;;;;;;8253804;28;20030;-78
2023/09/21 01:55:26;;;;;;;5.75;4.32;;;11.70;99.90;;;;;;8257971;28;20125;-78
2023/09/21 01:59:26;;;;;;;4.93;3.80;;;11.70;99.90;;;;;;8278072;28;20034;-79
2023/09/21 02:03:28;;;;;;;7.38;4.30;;;11.60;99.90;;;;;;8252312;28;20142;-79
2023/09/21 02:07:29;;;;;;;7.03;4.13;;;11.50;99.90;;;;;;8241726;28;20027;-78
2023/09/21 02:11:29;;;;;;;7.15;4.78;;;11.50;99.90;;;;;;8259406;28;20681;-79
2023/09/21 02:15:31;;;;;;;6.85;4.13;;;11.50;99.90;;;;;;8228543;28;20503;-78
2023/09/21 02:19:37;;;;;;;7.25;4.28;;;11.50;99.90;;;;;;8257994;28;20495;-79
2023/09/21 02:23:38;;;;;;;4.82;4.13;;;11.40;99.90;;;;;;8234786;28;20523;-79
2023/09/21 02:27:40;;;;;;;6.13;4.22;;;11.50;99.90;;;;;;8228998;28;20514;-78
2023/09/21 02:31:43;;;;;;;4.88;4.18;;;11.60;99.90;;;;;;8259478;28;20018;-78
2023/09/21 02:35:46;;;;;;;8.15;4.70;;;11.80;99.90;;;;;;8268099;28;20053;-78
2023/09/21 02:39:48;;;;;;;6.28;4.53;;;11.80;99.90;;;;;;8243701;28;20019;-79
2023/09/21 02:43:49;;;;;;;6.57;3.75;;;11.90;99.90;;;;;;8262906;28;20150;-79
2023/09/21 02:48:00;;;;;;;5.47;3.75;;;12.10;99.90;;;;;;8248527;28;20029;-78
2023/09/21 02:52:01;;;;;;;4.70;3.65;;;12.20;99.90;;;;;;8259242;28;20535;-78
2023/09/21 02:56:03;;;;;;;5.28;4.10;;;12.20;99.90;;;;;;8240093;28;20486;-78
2023/09/21 03:04:42;;;;;;;10.00;4.10;;;12.20;99.90;;;;;;8159823;28;20034;-77
2023/09/21 03:08:45;;;;;;;5.38;3.95;;;12.30;99.90;;;;;;8254023;28;20031;-78
2023/09/21 03:12:49;;;;;;;4.40;3.80;;;12.30;99.90;;;;;;8250268;28;20109;-79
2023/09/21 03:16:49;;;;;;;4.70;4.25;;;12.30;99.90;;;;;;8241881;28;20118;-79
2023/09/21 03:20:53;;;;;;;5.93;4.07;;;12.30;99.90;;;;;;8256860;28;20026;-76
2023/09/21 03:24:57;;;;;;;7.13;4.32;;;12.50;99.90;;;;;;8244947;28;20037;-78
2023/09/21 03:28:58;;;;;;;7.80;3.88;;;12.60;99.90;;;;;;8243934;28;20395;-78
2023/09/21 03:32:59;;;;;;;10.50;5.32;;;12.70;99.90;;;;;;8235803;28;20023;-78
2023/09/21 03:37:00;;;;;;;8.80;3.70;;;12.60;99.90;;;;;;8234475;28;20037;-78
2023/09/21 03:41:00;;;;;;;6.45;3.53;;;12.40;99.90;;;;;;8239369;28;20031;-78
2023/09/21 03:45:01;;;;;;;5.70;3.80;;;12.10;99.90;;;;;;8234649;28;20553;-78
2023/09/21 03:49:04;;;;;;;6.00;4.00;;;12.30;99.90;;;;;;8223145;28;20117;-78
2023/09/21 03:53:05;;;;;;;9.77;4.05;;;12.10;99.90;;;;;;8244171;28;20080;-78
2023/09/21 03:57:05;;;;;;;4.25;3.22;;;11.80;99.90;;;;;;8261402;28;20023;-78
2023/09/21 04:01:08;;;;;;;4.70;4.10;;;11.70;99.90;;;;;;8259706;28;20120;-78
2023/09/21 04:05:09;;;;;;;5.90;3.58;;;11.70;99.90;;;;;;8245707;28;20153;-78
2023/09/21 04:09:10;;;;;;;5.30;4.32;;;11.70;99.90;;;;;;8251507;28;20035;-78
2023/09/21 04:13:10;;;;;;;6.32;4.45;;;11.60;99.90;;;;;;8249863;28;20029;-78
2023/09/21 04:17:11;;;;;;;7.25;4.50;;;11.50;99.90;;;;;;8246194;28;20023;-78
2023/09/21 04:21:12;;;;;;;8.48;4.88;;;11.40;99.90;;;;;;8250477;28;20027;-78
2023/09/21 04:25:14;;;;;;;7.32;5.55;;;11.40;99.90;;;;;;8241658;28;20049;-78
2023/09/21 04:29:15;;;;;;;7.10;4.53;;;11.40;99.90;;;;;;8243012;28;20402;-78
2023/09/21 04:33:16;;;;;;;6.53;4.18;;;11.50;99.90;;;;;;8268695;28;20062;-78
2023/09/21 04:37:16;;;;;;;6.57;4.25;;;11.50;99.90;;;;;;8243430;28;20038;-77
2023/09/21 04:41:17;;;;;;;5.68;4.50;;;11.60;99.90;;;;;;8244088;28;20030;-78
2023/09/21 04:45:18;;;;;;;5.63;4.63;;;11.60;99.90;;;;;;8257784;28;20039;-78
2023/09/21 04:49:19;;;;;;;8.30;4.78;;;11.60;99.90;;;;;;8250117;28;20023;-78
2023/09/21 04:53:19;;;;;;;6.20;4.95;;;11.50;99.90;;;;;;8257568;28;20036;-78
2023/09/21 04:57:20;;;;;;;6.75;4.18;;;11.50;99.90;;;;;;8263684;28;20022;-77
2023/09/21 05:01:25;;;;;;;4.88;4.38;;;11.50;99.90;;;;;;8236474;28;20023;-78
2023/09/21 05:05:26;;;;;;;10.93;4.25;;;11.60;99.90;;;;;;8241399;28;20019;-78
2023/09/21 05:09:27;;;;;;;7.28;4.97;;;11.50;99.90;;;;;;8239374;28;20031;-77
2023/09/21 05:13:27;;;;;;;9.60;5.25;;;11.50;99.90;;;;;;8242792;28;20039;-78
2023/09/21 05:17:28;;;;;;;9.05;4.90;;;11.50;99.90;;;;;;8232840;28;20034;-78
2023/09/21 05:21:28;;;;;;;6.30;4.50;;;11.50;99.90;;;;;;8260185;28;20019;-78
2023/09/21 05:25:31;;;;;;;8.63;5.57;;;11.70;99.90;;;;;;8247112;28;20027;-77
2023/09/21 05:29:31;;;;;;;8.57;5.35;;;11.60;99.90;;;;;;8242490;28;20029;-78
2023/09/21 05:33:32;;;;;;;9.13;6.53;;;11.70;99.90;;;;;;8248702;28;20482;-78
2023/09/21 05:37:35;;;;;;;8.50;7.28;;;11.70;99.90;;;;;;8231651;28;20042;-78
2023/09/21 05:41:36;;;;;;;9.85;6.82;;;11.90;99.90;;;;;;8243731;28;20091;-78
2023/09/21 05:45:37;;;;;;;9.07;5.60;;;12.00;99.90;;;;;;8245301;28;20023;-78
2023/09/21 05:49:38;;;;;;;8.20;5.03;;;12.10;99.90;;;;;;8248814;28;20033;-77
2023/09/21 05:53:38;;;;;;;9.00;5.70;;;12.20;99.90;;;;;;8253917;28;20046;-78
2023/09/21 05:57:39;;;;;;;5.03;4.53;;;12.30;99.90;;;;;;8271773;28;20082;-78
2023/09/21 06:01:39;;;;;;;7.97;5.60;;;12.40;99.90;;;;;;8249777;28;20019;-77
2023/09/21 06:05:45;;;;;;;6.47;4.25;;;12.50;99.90;;;;;;8247372;28;20037;-77
2023/09/21 06:09:45;;;;;;;6.05;4.13;;;12.80;99.90;;;;;;8231024;28;20145;-78
2023/09/21 06:13:46;;;;;;;4.78;4.00;;;13.00;99.90;;;;;;8236559;28;20018;-78
2023/09/21 06:17:46;;;;;;;4.82;3.67;;;13.20;99.90;;;;;;8246977;28;20022;-79
2023/09/21 06:21:50;;;;;;;4.90;3.40;;;13.30;99.90;;;;;;8235504;28;20033;-78
2023/09/21 06:25:50;;;;;;;3.65;2.92;;;13.40;99.90;;;;;;8245962;28;20019;-79
2023/09/21 06:29:51;;;;;;;6.03;2.70;;;13.50;99.90;;;;;;8235271;28;20037;-78
2023/09/21 06:33:57;;;;;;;3.67;2.95;;;13.60;99.90;;;;;;8234851;28;20060;-79
2023/09/21 06:37:59;;;;;;;4.20;2.72;;;13.70;99.90;;;;;;8249563;28;20023;-79
2023/09/21 06:42:00;;;;;;;5.93;3.08;;;13.80;99.90;;;;;;8243213;28;20403;-78
2023/09/21 06:46:00;;;;;;;6.00;2.95;;;13.70;99.90;;;;;;8243528;28;20027;-78
2023/09/21 06:50:01;;;;;;;8.63;3.55;;;13.70;99.90;;;;;;8242596;28;20444;-79
2023/09/21 06:54:02;;;;;;;4.55;3.50;;;13.70;99.90;;;;;;8225367;28;20465;-79
2023/09/21 06:58:08;;;;;;;6.25;3.50;;;13.60;99.90;;;;;;8228721;28;20050;-78
2023/09/21 07:02:11;;;;;;;4.05;3.50;;;13.60;99.90;;;;;;8245387;28;20640;-79
2023/09/21 07:06:11;;;;;;;8.85;4.35;;;13.50;99.90;;;;;;8227167;28;20019;-79
2023/09/21 07:10:14;;;;;;;5.68;4.28;;;13.80;99.90;;;;;;8229392;28;20527;-79
2023/09/21 07:14:15;;;;;;;7.40;4.15;;;14.20;99.90;;;;;;8222882;28;20104;-79
2023/09/21 07:18:16;;;;;;;5.40;4.50;;;14.60;99.90;;;;;;8219426;28;20031;-80
2023/09/21 07:22:16;;;;;;;4.65;3.38;;;15.20;99.90;;;;;;8245529;28;20027;-79
2023/09/21 07:26:17;;;;;;;6.07;3.40;;;15.80;99.90;;;;;;8220816;28;20058;-78
2023/09/21 07:30:18;;;;;;;4.85;2.83;;;16.40;99.90;;;;;;8261594;28;20034;-78
2023/09/21 07:34:19;;;;;;;3.33;2.97;;;16.90;99.90;;;;;;8251696;28;20023;-80
2023/09/21 07:38:21;;;;;;;3.70;2.60;;;17.10;99.90;;;;;;8238473;28;20034;-80
2023/09/21 07:42:22;;;;;;;3.10;2.72;;;17.50;99.90;;;;;;8229576;28;20767;-79
2023/09/21 07:46:23;;;;;;;3.30;3.00;;;18.00;99.90;;;;;;8274487;28;20026;-80
2023/09/21 07:50:24;;;;;;;5.07;3.40;;;17.90;99.90;;;;;;8236032;28;20031;-78
2023/09/21 07:54:24;;;;;;;4.95;3.40;;;18.20;99.90;;;;;;8252845;28;20030;-80
2023/09/21 07:58:25;;;;;;;3.90;3.08;;;18.40;99.90;;;;;;8249172;28;20042;-79
2023/09/21 08:02:27;;;;;;;5.80;2.95;;;18.10;99.90;;;;;;8247971;28;20034;-79
2023/09/21 08:06:28;;;;;;;4.57;2.60;;;17.90;99.90;;;;;;8251211;28;20023;-78
2023/09/21 08:10:32;;;;;;;5.50;3.17;;;17.80;99.90;;;;;;8245741;28;20465;-79
2023/09/21 08:14:34;;;;;;;7.82;3.40;;;17.70;99.90;;;;;;8243847;28;20036;-79
2023/09/21 08:18:39;;;;;;;3.95;3.40;;;17.60;99.90;;;;;;8240607;28;20058;-79
2023/09/21 08:22:41;;;;;;;3.95;3.33;;;17.50;99.90;;;;;;8234429;28;20057;-79
2023/09/21 08:26:42;;;;;;;5.13;3.40;;;17.70;99.90;;;;;;8243188;28;20034;-79
2023/09/21 08:30:42;;;;;;;4.70;3.70;;;17.70;99.90;;;;;;8248586;28;20073;-78
2023/09/21 08:34:44;;;;;;;5.63;3.55;;;18.30;99.90;;;;;;8253531;28;20030;-80
2023/09/21 08:38:45;;;;;;;5.00;3.63;;;18.40;99.90;;;;;;8241024;28;20035;-79
2023/09/21 08:42:53;;;;;;;5.55;3.40;;;18.90;99.90;;;;;;8234560;28;20034;-79
2023/09/21 08:46:54;;;;;;;7.13;3.08;;;19.50;99.90;;;;;;8242183;28;20027;-79
2023/09/21 08:50:55;;;;;;;4.60;3.08;;;19.70;99.90;;;;;;8242734;28;20022;-80
2023/09/21 08:54:56;;;;;;;5.47;2.88;;;20.30;99.90;;;;;;8239535;28;20022;-80
2023/09/21 08:58:59;;;;;;;8.70;2.85;;;20.70;99.90;;;;;;8229914;28;20043;-79
2023/09/21 09:03:00;;;;;;;3.78;2.58;;;21.00;99.90;;;;;;8237966;28;20586;-80
2023/09/21 09:07:01;;;;;;;3.95;2.45;;;21.70;99.90;;;;;;8261014;28;20019;-79
2023/09/21 09:11:02;;;;;;;3.78;2.38;;;22.60;99.90;;;;;;8259735;28;20045;-80
2023/09/21 09:15:05;;;;;;;4.45;2.58;;;23.50;99.90;;;;;;8232164;28;20039;-79
2023/09/21 09:19:05;;;;;;;4.00;1.80;;;24.50;99.90;;;;;;8252860;28;20022;-79
2023/09/21 09:23:10;;;;;;;2.75;1.80;;;25.30;99.90;;;;;;8250805;28;20027;-79
2023/09/21 09:27:14;;;;;;;3.70;2.10;;;25.30;99.90;;;;;;8241408;28;20081;-79
2023/09/21 09:31:18;;;;;;;2.45;1.80;;;25.20;99.90;;;;;;8233623;28;20054;-80
2023/09/21 09:35:20;;;;;;;3.80;1.73;;;25.10;99.90;;;;;;8246710;28;20026;-80
2023/09/21 09:39:24;;;;;;;4.07;1.70;;;25.80;99.90;;;;;;8235342;28;20037;-80
2023/09/21 09:43:28;;;;;;;4.47;1.70;;;26.40;99.90;;;;;;8245299;28;20023;-80
2023/09/21 09:47:31;;;;;;;2.55;1.40;;;26.70;99.90;;;;;;8229959;28;20074;-80
2023/09/21 09:51:41;;;;;;;1.75;1.33;;;27.00;99.90;;;;;;8218306;28;20407;-80
2023/09/21 09:55:42;;;;;;;3.92;2.28;;;26.50;99.90;;;;;;8237473;28;20034;-80
2023/09/21 09:59:44;;;;;;;2.97;1.45;;;26.70;99.90;;;;;;8249217;28;20510;-80
2023/09/21 10:03:50;;;;;;;3.40;1.35;;;26.80;99.90;;;;;;8231491;28;20027;-79
2023/09/21 10:07:55;;;;;;;2.55;1.52;;;27.20;99.90;;;;;;8229009;28;20038;-79
2023/09/21 10:11:57;;;;;;;2.95;1.48;;;27.80;99.90;;;;;;8232465;28;20101;-79
2023/09/21 10:16:02;;;;;;;3.38;1.60;;;28.60;99.90;;;;;;8249256;28;20049;-79
2023/09/21 10:20:14;;;;;;;2.85;1.45;;;29.30;99.90;;;;;;8245616;28;20110;-80
2023/09/21 10:24:18;;;;;;;4.05;2.05;;;29.30;99.90;;;;;;8247850;28;20038;-79
2023/09/21 10:28:28;;;;;;;2.33;1.83;;;29.60;99.90;;;;;;8253045;28;20219;-79
2023/09/21 10:32:43;;;;;;;5.40;1.73;;;29.00;99.90;;;;;;8231782;28;20035;-79
2023/09/21 10:36:49;;;;;;;2.17;1.45;;;29.00;99.90;;;;;;8236982;28;20041;-78
2023/09/21 10:40:51;;;;;;;1.95;1.55;;;28.90;99.90;;;;;;8257951;28;20458;-79
2023/09/21 10:45:00;;;;;;;1.67;1.40;;;29.80;99.90;;;;;;8228680;28;20046;-79
2023/09/21 10:49:04;;;;;;;3.17;1.52;;;29.30;99.90;;;;;;8240650;28;20030;-79
2023/09/21 10:53:05;;;;;;;2.28;1.50;;;29.50;99.90;;;;;;8233919;28;20121;-79
2023/09/21 10:57:06;;;;;;;5.78;1.52;;;29.30;99.90;;;;;;8232187;28;20031;-79
2023/09/21 11:01:06;;;;;;;3.22;1.52;;;30.10;99.90;;;;;;8253894;28;20490;-80
2023/09/21 11:05:07;;;;;;;2.00;1.40;;;31.50;98.50;;;;;;8256457;28;20054;-80
2023/09/21 11:09:08;;;;;;;2.45;1.50;;;32.40;95.90;;;;;;8245879;28;20654;-80
2023/09/21 11:13:09;;;;;;;2.47;1.38;;;33.10;95.60;;;;;;8254128;28;20023;-78
2023/09/21 11:17:13;;;;;;;3.17;1.42;;;32.90;94.70;;;;;;8235685;28;20061;-80
2023/09/21 11:21:16;;;;;;;1.88;1.30;;;33.30;91.30;;;;;;8243184;28;20026;-79
2023/09/21 11:25:22;;;;;;;1.98;1.35;;;33.80;89.20;;;;;;8238808;28;20027;-80
2023/09/21 11:29:26;;;;;;;3.35;1.48;;;34.00;90.90;;;;;;8257065;28;20023;-80
2023/09/21 11:33:27;;;;;;;3.45;1.38;;;34.70;87.70;;;;;;8239186;28;20034;-80
2023/09/21 11:37:28;;;;;;;1.48;1.10;;;34.60;72.20;;;;;;8242999;28;20066;-79
2023/09/21 11:41:29;;;;;;;1.33;1.10;;;34.00;74.90;;;;;;8252554;28;20377;-80
2023/09/21 11:45:34;;;;;;;1.83;1.10;;;34.00;77.40;;;;;;8245640;28;20015;-80
2023/09/21 11:49:42;;;;;;;1.10;1.00;;;34.90;73.20;;;;;;8233152;28;20037;-79
2023/09/21 11:53:44;;;;;;;1.38;1.00;;;34.70;69.00;;;;;;8233534;28;20030;-78
2023/09/21 11:57:45;;;;;;;1.55;1.13;;;33.90;69.70;;;;;;8246054;28;20057;-80
2023/09/21 12:01:48;;;;;;;3.65;1.15;;;34.30;66.90;;;;;;8246281;28;20034;-79
2023/09/21 12:05:56;;;;;;;5.70;1.40;;;34.30;68.00;;;;;;8247599;28;20696;-80
2023/09/21 12:09:56;;;;;;;1.10;0.85;;;34.50;69.10;;;;;;8248406;28;20035;-80
2023/09/21 12:13:57;;;;;;;1.33;1.00;;;35.20;64.70;;;;;;8236478;28;20035;-80
2023/09/21 12:17:57;;;;;;;2.08;1.10;;;34.60;66.00;;;;;;8232856;28;20102;-80
2023/09/21 12:21:59;;;;;;;2.17;1.00;;;34.40;69.30;;;;;;8239806;28;20027;-79
2023/09/21 12:26:02;;;;;;;3.20;0.85;;;33.50;71.20;;;;;;8257525;28;20058;-80
2023/09/21 12:30:05;;;;;;;0.80;0.80;;;35.20;68.10;;;;;;8239789;28;20037;-80
2023/09/21 12:34:06;;;;;;;1.92;0.95;;;35.60;57.30;;;;;;8214998;28;20034;-80
2023/09/21 12:38:07;;;;;;;2.67;0.90;;;35.30;61.40;;;;;;8229025;28;20031;-80
2023/09/21 12:42:08;;;;;;;0.80;0.60;;;35.60;57.70;;;;;;8229271;28;20051;-80
2023/09/21 12:46:08;;;;;;;0.82;0.75;;;36.00;56.30;;;;;;8230264;28;20062;-80
2023/09/21 12:50:12;;;;;;;3.58;0.82;;;36.60;57.80;;;;;;8249035;28;20031;-80
2023/09/21 12:54:14;;;;;;;1.42;0.90;;;37.50;53.40;;;;;;8232987;28;20177;-79
2023/09/21 12:58:14;;;;;;;2.33;0.88;;;37.10;55.90;;;;;;8226003;28;20023;-80
2023/09/21 13:02:15;;;;;;;1.33;0.70;;;36.70;54.90;;;;;;8232612;28;20491;-80
2023/09/21 13:06:16;;;;;;;0.90;0.70;;;35.80;58.80;;;;;;8250651;28;20110;-80
2023/09/21 13:10:20;;;;;;;1.13;0.60;;;34.60;55.10;;;;;;8248413;28;20031;-80
2023/09/21 13:14:20;;;;;;;4.05;0.77;;;33.20;59.80;;;;;;8228483;28;20031;-78
2023/09/21 13:18:21;;;;;;;1.98;0.80;;;32.80;62.00;;;;;;8243732;28;20042;-80
2023/09/21 13:22:21;;;;;;;1.67;0.70;;;33.10;59.30;;;;;;8221801;28;20026;-80
2023/09/21 13:26:22;;;;;;;1.67;0.70;;;33.60;57.90;;;;;;8231967;28;20569;-80
2023/09/21 13:30:22;;;;;;;3.28;1.10;;;34.30;59.50;;;;;;8231915;28;20045;-80
2023/09/21 13:34:24;;;;;;;1.23;0.88;;;34.00;60.60;;;;;;8241350;28;20014;-80
2023/09/21 13:38:27;;;;;;;3.00;1.00;;;33.80;59.30;;;;;;8236091;28;20526;-79
2023/09/21 13:42:28;;;;;;;5.55;0.75;;;32.80;63.50;;;;;;8229176;28;20029;-79
2023/09/21 13:46:29;;;;;;;2.35;0.90;;;33.10;63.60;;;;;;8245286;28;20034;-79
2023/09/21 13:50:30;;;;;;;3.30;0.95;;;33.80;58.00;;;;;;8233187;28;20488;-79
2023/09/21 13:54:31;;;;;;;1.33;0.90;;;32.80;64.60;;;;;;8237439;28;20026;-80
2023/09/21 13:58:34;;;;;;;1.10;0.80;;;31.40;66.60;;;;;;8223189;28;20114;-80
2023/09/21 14:02:35;;;;;;;1.67;0.60;;;30.50;66.90;;;;;;8245546;28;20061;-80
2023/09/21 14:06:36;;;;;;;5.95;0.90;;;29.60;69.30;;;;;;8237566;28;20122;-80
2023/09/21 14:10:38;;;;;;;2.30;1.00;;;29.20;70.80;;;;;;8255620;28;20030;-80
2023/09/21 14:14:38;;;;;;;3.08;1.10;;;28.80;71.90;;;;;;8240068;28;20024;-80
2023/09/21 14:18:40;;;;;;;1.17;0.90;;;28.50;72.60;;;;;;8244960;28;20064;-80
2023/09/21 14:22:40;;;;;;;1.90;1.00;;;28.00;78.20;;;;;;8226339;28;20030;-80
2023/09/21 14:26:41;;;;;;;2.10;0.90;;;27.70;75.70;;;;;;8227853;28;20026;-79
2023/09/21 14:30:41;;;;;;;1.02;0.80;;;27.50;82.90;;;;;;8220186;28;20078;-80
2023/09/21 14:34:42;;;;;;;1.10;0.80;;;27.30;80.00;;;;;;8238583;28;20031;-79
2023/09/21 14:38:43;;;;;;;3.20;1.05;;;27.50;78.70;;;;;;8231439;28;20031;-80
2023/09/21 14:42:44;;;;;;;1.55;0.90;;;27.30;80.80;;;;;;8235371;28;20114;-80
2023/09/21 14:46:44;;;;;;;2.78;1.17;;;27.10;83.10;;;;;;8222291;28;20038;-80
2023/09/21 14:50:48;;;;;;;1.10;0.90;;;27.10;83.60;;;;;;8231923;28;20062;-80
2023/09/21 14:54:49;;;;;;;3.35;1.10;;;26.90;83.80;;;;;;8212901;28;20023;-80
2023/09/21 14:58:49;;;;;;;2.17;1.10;;;26.40;88.50;;;;;;8232583;28;20041;-78
2023/09/21 15:02:50;;;;;;;1.83;0.95;;;26.70;87.20;;;;;;8242336;28;20034;-80
2023/09/21 15:06:51;;;;;;;3.08;1.10;;;27.80;82.60;;;;;;8234606;28;20033;-80
2023/09/21 15:10:53;;;;;;;2.65;1.08;;;27.90;80.70;;;;;;8245888;28;20679;-80
2023/09/21 15:14:54;;;;;;;2.67;1.10;;;27.90;84.70;;;;;;8231581;28;20026;-80
2023/09/21 15:18:54;;;;;;;2.50;1.40;;;27.60;86.70;;;;;;8250109;28;20046;-80
2023/09/21 15:22:55;;;;;;;2.13;1.10;;;27.40;89.40;;;;;;8230418;28;20023;-80
2023/09/21 15:26:56;;;;;;;1.58;0.80;;;27.10;86.80;;;;;;8240442;28;20037;-80
2023/09/21 15:30:57;;;;;;;3.03;1.00;;;26.90;84.20;;;;;;8235150;28;20018;-79
2023/09/21 15:34:58;;;;;;;3.05;1.05;;;26.50;86.90;;;;;;8225212;28;20038;-80
2023/09/21 15:38:58;;;;;;;1.80;1.10;;;26.20;89.10;;;;;;8237434;28;20070;-80
2023/09/21 15:42:59;;;;;;;1.58;1.10;;;25.50;93.10;;;;;;8249718;28;20022;-79
2023/09/21 15:47:00;;;;;;;2.78;1.33;;;25.10;91.70;;;;;;8238103;28;20027;-79
2023/09/21 15:51:01;;;;;;;4.68;1.20;;;24.90;92.30;;;;;;8237549;28;20077;-82
2023/09/21 15:55:03;;;;;;;1.58;1.02;;;24.80;94.10;;;;;;8241582;28;20023;-82
2023/09/21 15:59:03;;;;;;;1.35;0.88;;;24.80;91.70;;;;;;8242678;28;20077;-80
2023/09/21 16:03:04;;;;;;;1.55;1.00;;;24.60;96.20;;;;;;8253372;28;20518;-82
2023/09/21 16:07:05;;;;;;;1.38;0.95;;;24.20;93.40;;;;;;8251285;28;20086;-81
2023/09/21 16:11:06;;;;;;;4.05;1.20;;;23.70;94.50;;;;;;8249114;28;20035;-81
2023/09/21 16:15:07;;;;;;;3.22;1.20;;;23.20;96.90;;;;;;8259810;28;20022;-82
2023/09/21 16:19:07;;;;;;;5.20;1.13;;;22.90;98.40;;;;;;8247589;28;20025;-80
2023/09/21 16:23:08;;;;;;;5.80;0.98;;;22.70;99.90;;;;;;8254585;28;20098;-82
2023/09/21 16:27:09;;;;;;;3.63;1.20;;;22.40;99.90;;;;;;8239146;28;20087;-83
2023/09/21 16:31:10;;;;;;;4.50;1.55;;;22.40;99.90;;;;;;8226169;28;20268;-79
2023/09/21 16:35:10;;;;;;;4.13;1.10;;;22.30;99.90;;;;;;8231044;28;20069;-80
2023/09/21 16:39:14;;;;;;;2.50;1.30;;;22.20;99.90;;;;;;8230374;28;20599;-80
2023/09/21 16:43:15;;;;;;;2.63;1.33;;;22.10;99.90;;;;;;8232815;28;20023;-78
2023/09/21 16:47:20;;;;;;;4.00;1.38;;;22.00;99.90;;;;;;8236785;28;20114;-79
2023/09/21 16:51:22;;;;;;;4.90;1.50;;;21.90;99.90;;;;;;8231668;28;20026;-79
2023/09/21 16:59:25;;;;;;;2.88;1.30;;;21.00;99.90;;;;;;8273540;28;20054;-83
2023/09/21 17:03:26;;;;;;;5.32;1.40;;;20.90;99.90;;;;;;8259796;28;20073;-83
2023/09/21 17:07:28;;;;;;;5.35;1.25;;;20.70;99.90;;;;;;8272518;28;20133;-84
2023/09/21 17:11:29;;;;;;;2.85;1.30;;;20.60;99.90;;;;;;8246912;28;20117;-83
2023/09/21 17:15:30;;;;;;;3.47;1.50;;;20.60;99.90;;;;;;8246294;28;20026;-83
2023/09/21 17:19:31;;;;;;;4.72;1.23;;;20.10;99.90;;;;;;8259683;28;20041;-83
2023/09/21 17:23:32;;;;;;;7.03;1.48;;;19.70;99.90;;;;;;8247448;28;20022;-83
2023/09/21 17:27:32;;;;;;;4.57;1.48;;;19.40;99.90;;;;;;8256163;28;20026;-84
2023/09/21 17:31:33;;;;;;;7.80;1.85;;;19.30;99.90;;;;;;8241785;28;20315;-85
2023/09/21 17:35:33;;;;;;;5.88;1.42;;;19.20;99.90;;;;;;8279896;28;20018;-85
2023/09/21 17:39:34;;;;;;;2.10;1.48;;;18.90;99.90;;;;;;8291705;28;20076;-85
2023/09/21 17:43:35;;;;;;;5.80;1.77;;;18.80;99.90;;;;;;8285685;28;20030;-84
2023/09/21 17:47:36;;;;;;;4.18;1.65;;;19.10;99.90;;;;;;8293058;28;20037;-85
2023/09/21 17:51:37;;;;;;;3.63;1.83;;;19.40;99.90;;;;;;8285046;28;20430;-85
2023/09/21 17:55:37;;;;;;;3.47;1.70;;;19.10;99.90;;;;;;8294149;28;20033;-85
2023/09/21 17:59:38;;;;;;;3.88;1.60;;;18.80;99.90;;;;;;8275261;28;20426;-85
2023/09/21 18:03:40;;;;;;;2.47;1.70;;;18.60;99.90;;;;;;8258902;28;20113;-85
2023/09/21 18:07:41;;;;;;;3.95;2.15;;;18.30;99.90;;;;;;8267610;28;20259;-85
2023/09/21 18:11:42;;;;;;;2.40;1.63;;;18.30;99.90;;;;;;8266715;28;20049;-84
2023/09/21 18:15:42;;;;;;;3.20;1.33;;;18.10;99.90;;;;;;8265929;28;20045;-85
2023/09/21 18:19:43;;;;;;;1.73;1.50;;;18.00;99.90;;;;;;8267711;28;20038;-84
2023/09/21 18:23:43;;;;;;;7.35;2.15;;;17.90;99.90;;;;;;8262996;28;20030;-84
2023/09/21 18:27:44;;;;;;;6.57;2.70;;;17.80;99.90;;;;;;8270304;28;20045;-84
2023/09/21 18:31:45;;;;;;;10.93;6.82;;;17.60;99.90;;;;;;8259161;28;20035;-85
2023/09/21 18:35:46;;;;;;;5.88;3.03;;;17.50;99.90;;;;;;8283317;28;20038;-85
2023/09/21 18:39:47;;;;;;;3.17;2.25;;;17.60;99.90;;;;;;8287671;28;20392;-84
2023/09/21 18:43:48;;;;;;;2.60;1.63;;;17.60;99.90;;;;;;8283667;28;20052;-85
2023/09/21 18:47:48;;;;;;;1.60;1.50;;;17.70;99.90;;;;;;8280457;28;20128;-85
2023/09/21 18:51:49;;;;;;;2.92;1.55;;;17.60;99.90;;;;;;8289409;28;20038;-85
2023/09/21 18:55:51;;;;;;;3.40;1.50;;;17.60;99.90;;;;;;8289088;28;20030;-85
2023/09/21 18:59:52;;;;;;;4.80;1.73;;;17.60;99.90;;;;;;8282505;28;20031;-85
2023/09/21 19:03:52;;;;;;;1.98;1.60;;;17.70;99.90;;;;;;8284734;28;20053;-85
2023/09/21 19:07:53;;;;;;;3.83;1.50;;;17.70;99.90;;;;;;8285844;28;20030;-85
2023/09/21 19:11:53;;;;;;;2.80;1.50;;;17.60;99.90;;;;;;8268473;28;20019;-85
2023/09/21 19:15:54;;;;;;;2.88;1.55;;;17.50;99.90;;;;;;8287100;28;20044;-85
2023/09/21 19:19:55;;;;;;;2.75;1.70;;;17.60;99.90;;;;;;8280534;28;20030;-85
2023/09/21 19:23:55;;;;;;;2.60;2.20;;;17.50;99.90;;;;;;8287287;28;20026;-85
2023/09/21 19:27:56;;;;;;;6.93;4.93;;;17.70;99.90;;;;;;8296738;28;20033;-85
2023/09/21 19:31:58;;;;;;;11.52;6.55;;;17.60;99.90;;;;;;8298259;28;20032;-85
2023/09/21 19:36:00;;;;;;;8.38;6.28;;;17.40;99.90;;;;;;8289443;28;20117;-85
2023/09/21 19:40:00;;;;;;;5.78;5.18;;;17.40;99.90;;;;;;8301318;28;20061;-85
2023/09/21 19:44:01;;;;;;;3.80;3.40;;;18.00;99.90;;;;;;8296540;28;20422;-85
2023/09/21 19:48:03;;;;;;;5.55;3.50;;;17.90;99.90;;;;;;8297145;28;20033;-85
2023/09/21 19:52:03;;;;;;;4.90;3.58;;;18.10;99.90;;;;;;8295796;28;20518;-85
2023/09/21 19:56:05;;;;;;;6.68;3.10;;;18.00;99.90;;;;;;8282527;28;20538;-85
2023/09/21 20:00:07;;;;;;;4.95;3.08;;;18.10;99.90;;;;;;8293063;28;20030;-85
2023/09/21 20:04:08;;;;;;;3.83;2.60;;;18.20;99.90;;;;;;8295492;28;20509;-85
2023/09/21 20:08:09;;;;;;;3.90;2.78;;;18.40;99.90;;;;;;8280904;28;20026;-85
2023/09/21 20:12:10;;;;;;;6.07;3.08;;;18.50;99.90;;;;;;8291421;28;20372;-85
2023/09/21 20:16:10;;;;;;;3.95;2.53;;;18.90;99.90;;;;;;8274095;28;20026;-85
2023/09/21 20:20:11;;;;;;;7.57;2.80;;;18.90;99.90;;;;;;8296034;28;20022;-85
2023/09/21 20:24:11;;;;;;;7.00;2.63;;;18.80;99.90;;;;;;8300193;28;20010;-85
2023/09/21 20:28:12;;;;;;;4.88;2.75;;;18.80;99.90;;;;;;8274423;28;20113;-84
2023/09/21 20:32:13;;;;;;;5.10;2.10;;;19.10;99.90;;;;;;8290443;28;20038;-84
2023/09/21 20:36:16;;;;;;;3.10;1.95;;;19.10;99.90;;;;;;8282779;28;20031;-84
2023/09/21 20:40:16;;;;;;;3.60;1.90;;;19.20;99.90;;;;;;8289934;28;20031;-85
2023/09/21 20:44:17;;;;;;;2.63;1.60;;;19.10;99.90;;;;;;8296652;28;20053;-85
2023/09/21 20:48:18;;;;;;;2.10;1.63;;;18.80;99.90;;;;;;8288711;28;20509;-85
2023/09/21 20:52:18;;;;;;;3.20;1.38;;;18.80;99.90;;;;;;8272672;28;20037;-85
2023/09/21 20:56:19;;;;;;;2.58;0.70;;;18.70;99.90;;;;;;8279752;28;20684;-84
2023/09/21 21:00:22;;;;;;;3.90;0.75;;;18.70;99.90;;;;;;8272385;28;20053;-85
2023/09/21 21:04:23;;;;;;;2.22;0.68;;;18.60;99.90;;;;;;8268073;28;20014;-84